Time;durP1;ratioP1;P1;durP2;ratioP2;P2;SDS_P1;SDS_P2;PMS_P1;PMS_P2;Temp;Humidity;BMP_temperature;BMP_pressure;BME280_temperature;BME280_humidity;BME280_pressure;Samples;Min_cycle;Max_cycle;Signal;HPM_P1;HPM_P2
2023/10/06 00:01:21;;;;;;;8.35;4.88;;;;;;;;;;1044152;28;20064;-66
2023/10/06 00:01:51;;;;;;;11.43;5.70;;;;;;;;;;1042260;28;20082;-65
2023/10/06 00:02:31;;;;;;;12.15;4.88;;;;;;;;;;1044859;28;20130;-66
2023/10/06 00:03:06;;;;;;;12.40;5.32;;;;;;;;;;1043024;28;20490;-66
2023/10/06 00:03:37;;;;;;;14.95;5.10;;;;;;;;;;1045561;28;20094;-65
2023/10/06 00:04:12;;;;;;;11.32;4.88;;;;;;;;;;1044608;28;20485;-66
2023/10/06 00:04:43;;;;;;;7.38;4.45;;;;;;;;;;1046784;28;20131;-66
2023/10/06 00:05:14;;;;;;;10.43;5.15;;;;;;;;;;1042678;28;20049;-66
2023/10/06 00:05:44;;;;;;;11.75;5.30;;;;;;;;;;1045676;28;20145;-66
2023/10/06 00:06:22;;;;;;;9.27;4.50;;;;;;;;;;1043193;28;20048;-66
2023/10/06 00:06:54;;;;;;;17.63;5.05;;;;;;;;;;1044148;28;20044;-66
2023/10/06 00:07:24;;;;;;;7.72;4.68;;;;;;;;;;1043932;28;20500;-66
2023/10/06 00:07:56;;;;;;;8.85;4.60;;;;;;;;;;1046342;28;20495;-66
2023/10/06 00:08:32;;;;;;;7.65;4.50;;;;;;;;;;1043979;28;20051;-65
2023/10/06 00:09:09;;;;;;;9.02;4.95;;;;;;;;;;1043114;28;20453;-66
2023/10/06 00:09:43;;;;;;;8.05;4.57;;;;;;;;;;1045278;28;20055;-66
2023/10/06 00:10:16;;;;;;;11.32;5.00;;;;;;;;;;1045084;28;20159;-66
2023/10/06 00:10:51;;;;;;;11.05;5.22;;;;;;;;;;1044527;28;20079;-66
2023/10/06 00:11:29;;;;;;;8.85;5.10;;;;;;;;;;1043879;28;20136;-66
2023/10/06 00:12:01;;;;;;;12.82;4.60;;;;;;;;;;1044808;28;20048;-66
2023/10/06 00:12:32;;;;;;;7.85;4.25;;;;;;;;;;1045186;28;20040;-66
2023/10/06 00:13:05;;;;;;;6.75;4.10;;;;;;;;;;1044453;28;20063;-66
2023/10/06 00:13:37;;;;;;;8.57;4.47;;;;;;;;;;1046062;28;20052;-65
2023/10/06 00:14:08;;;;;;;8.88;4.80;;;;;;;;;;1043304;28;20417;-66
2023/10/06 00:14:40;;;;;;;7.88;4.30;;;;;;;;;;1044472;28;20454;-66
2023/10/06 00:15:14;;;;;;;8.07;4.57;;;;;;;;;;1044883;28;20056;-66
2023/10/06 00:15:46;;;;;;;9.32;4.53;;;;;;;;;;1045970;28;20044;-66
2023/10/06 00:16:18;;;;;;;8.43;4.80;;;;;;;;;;1044349;28;20064;-66
2023/10/06 00:16:49;;;;;;;6.72;4.25;;;;;;;;;;1043103;28;20056;-66
2023/10/06 00:17:21;;;;;;;8.00;4.03;;;;;;;;;;1045843;28;21719;-66
2023/10/06 00:18:00;;;;;;;11.25;4.60;;;;;;;;;;1046460;28;20048;-66
2023/10/06 00:18:35;;;;;;;7.05;4.57;;;;;;;;;;1045490;28;20056;-66
2023/10/06 00:19:26;;;;;;;12.77;5.30;;;;;;;;;;1045158;28;20143;-66
2023/10/06 00:19:59;;;;;;;9.90;4.10;;;;;;;;;;1045785;28;20058;-66
2023/10/06 00:20:39;;;;;;;11.02;5.05;;;;;;;;;;1044678;28;20056;-66
2023/10/06 00:21:16;;;;;;;13.18;4.63;;;;;;;;;;1046290;28;20102;-66
2023/10/06 00:21:53;;;;;;;11.25;5.22;;;;;;;;;;1044553;28;20044;-66
2023/10/06 00:22:26;;;;;;;10.88;5.22;;;;;;;;;;1044243;28;20056;-66
2023/10/06 00:23:02;;;;;;;10.82;4.88;;;;;;;;;;1044958;28;20056;-66
2023/10/06 00:23:38;;;;;;;14.95;4.95;;;;;;;;;;1045348;28;20052;-66
2023/10/06 00:24:10;;;;;;;12.38;4.25;;;;;;;;;;1044249;28;20149;-66
2023/10/06 00:24:41;;;;;;;8.93;4.63;;;;;;;;;;1044672;28;20040;-65
2023/10/06 00:25:13;;;;;;;8.90;5.00;;;;;;;;;;1043455;28;20040;-65
2023/10/06 00:25:44;;;;;;;11.27;4.85;;;;;;;;;;1044999;28;20094;-66
2023/10/06 00:26:16;;;;;;;13.77;4.78;;;;;;;;;;1045060;28;20114;-66
2023/10/06 00:26:47;;;;;;;7.85;4.80;;;;;;;;;;1045847;28;20910;-66
2023/10/06 00:27:29;;;;;;;11.93;4.82;;;;;;;;;;1044468;28;20053;-68
2023/10/06 00:28:00;;;;;;;8.98;4.45;;;;;;;;;;1045064;28;20071;-65
2023/10/06 00:28:32;;;;;;;8.02;4.70;;;;;;;;;;1045331;28;20033;-66
2023/10/06 00:29:09;;;;;;;10.45;5.07;;;;;;;;;;1045153;28;20044;-66
2023/10/06 00:29:48;;;;;;;9.35;4.63;;;;;;;;;;1045432;28;20045;-66
2023/10/06 00:30:20;;;;;;;7.95;4.47;;;;;;;;;;1044680;28;20059;-66
2023/10/06 00:30:57;;;;;;;7.82;4.45;;;;;;;;;;1045376;28;20055;-66
2023/10/06 00:31:31;;;;;;;8.55;4.47;;;;;;;;;;1044651;28;20051;-66
2023/10/06 00:32:21;;;;;;;7.28;4.13;;;;;;;;;;1044131;28;20052;-66
2023/10/06 00:32:54;;;;;;;9.77;3.85;;;;;;;;;;1044639;28;20053;-65
2023/10/06 00:33:32;;;;;;;6.68;4.50;;;;;;;;;;1042486;28;20045;-66
2023/10/06 00:34:02;;;;;;;6.50;4.30;;;;;;;;;;1044695;28;20051;-66
2023/10/06 00:34:35;;;;;;;7.72;4.97;;;;;;;;;;1045376;28;20055;-66
2023/10/06 00:35:11;;;;;;;8.60;4.25;;;;;;;;;;1042761;28;20135;-66
2023/10/06 00:35:44;;;;;;;11.88;4.35;;;;;;;;;;1044474;28;20055;-66
2023/10/06 00:36:14;;;;;;;11.05;4.60;;;;;;;;;;1044049;28;20137;-66
2023/10/06 00:36:52;;;;;;;10.88;5.10;;;;;;;;;;1045638;28;20183;-66
2023/10/06 00:37:23;;;;;;;12.60;5.55;;;;;;;;;;1042565;28;20966;-66
2023/10/06 00:37:57;;;;;;;7.55;4.70;;;;;;;;;;1046114;28;20898;-65
2023/10/06 00:38:30;;;;;;;8.60;4.65;;;;;;;;;;1043590;28;20412;-66
2023/10/06 00:39:11;;;;;;;10.77;5.00;;;;;;;;;;1045769;28;20043;-66
2023/10/06 00:39:43;;;;;;;10.75;4.88;;;;;;;;;;1045772;28;20048;-66
2023/10/06 00:40:20;;;;;;;9.98;4.28;;;;;;;;;;1043213;28;20739;-66
2023/10/06 00:40:51;;;;;;;8.73;4.55;;;;;;;;;;1044630;28;20567;-66
2023/10/06 00:41:21;;;;;;;7.13;4.53;;;;;;;;;;1045647;28;20632;-66
2023/10/06 00:41:56;;;;;;;8.43;4.72;;;;;;;;;;1045514;28;20538;-66
2023/10/06 00:42:27;;;;;;;9.65;4.70;;;;;;;;;;1043401;28;20045;-66
2023/10/06 00:42:59;;;;;;;9.05;4.28;;;;;;;;;;1045787;28;20061;-66
2023/10/06 00:43:43;;;;;;;15.15;5.18;;;;;;;;;;1045464;28;20524;-66
2023/10/06 00:44:14;;;;;;;10.25;4.65;;;;;;;;;;1043528;28;20126;-66
2023/10/06 00:44:47;;;;;;;11.05;5.03;;;;;;;;;;1043292;28;20097;-66
2023/10/06 00:45:17;;;;;;;9.30;4.63;;;;;;;;;;1042486;28;20528;-66
2023/10/06 00:45:48;;;;;;;11.15;4.93;;;;;;;;;;1046062;28;20067;-66
2023/10/06 00:46:19;;;;;;;12.40;4.95;;;;;;;;;;1044238;28;20056;-65
2023/10/06 00:46:49;;;;;;;9.63;4.97;;;;;;;;;;1044843;28;20448;-66
2023/10/06 00:47:21;;;;;;;11.00;5.07;;;;;;;;;;1044736;28;20751;-66
2023/10/06 00:47:55;;;;;;;11.40;4.90;;;;;;;;;;1045503;28;20174;-66
2023/10/06 00:48:29;;;;;;;8.60;4.35;;;;;;;;;;1044321;28;20139;-65
2023/10/06 00:49:04;;;;;;;9.02;4.43;;;;;;;;;;1043712;28;20056;-66
2023/10/06 00:49:35;;;;;;;11.68;5.18;;;;;;;;;;1044959;28;20049;-66
2023/10/06 00:50:12;;;;;;;9.05;4.93;;;;;;;;;;1046132;28;20127;-66
2023/10/06 00:50:43;;;;;;;10.18;4.82;;;;;;;;;;1044433;28;20053;-66
2023/10/06 00:51:22;;;;;;;11.77;5.45;;;;;;;;;;1045360;28;20041;-66
2023/10/06 00:51:53;;;;;;;11.57;5.53;;;;;;;;;;1044790;28;20048;-66
2023/10/06 00:52:24;;;;;;;8.35;4.97;;;;;;;;;;1040182;28;20125;-65
2023/10/06 00:52:55;;;;;;;9.25;5.05;;;;;;;;;;1039672;28;20058;-66
2023/10/06 00:53:31;;;;;;;8.88;5.60;;;;;;;;;;1040054;28;20052;-66
2023/10/06 00:54:03;;;;;;;10.75;5.13;;;;;;;;;;1038240;28;20052;-66
2023/10/06 00:54:34;;;;;;;10.57;5.13;;;;;;;;;;1041388;28;20037;-66
2023/10/06 00:55:10;;;;;;;12.10;5.57;;;;;;;;;;1042306;28;20511;-66
2023/10/06 00:55:41;;;;;;;10.43;5.18;;;;;;;;;;1045081;28;20531;-66
2023/10/06 00:56:15;;;;;;;14.60;5.75;;;;;;;;;;1041853;28;20049;-67
2023/10/06 00:56:47;;;;;;;12.70;5.30;;;;;;;;;;1041284;28;20129;-66
2023/10/06 00:57:19;;;;;;;11.38;5.22;;;;;;;;;;1040227;28;20056;-66
2023/10/06 00:57:55;;;;;;;15.40;5.47;;;;;;;;;;1040018;28;20639;-65
2023/10/06 00:58:34;;;;;;;12.43;6.05;;;;;;;;;;1040504;28;20057;-66
2023/10/06 00:59:05;;;;;;;10.60;5.35;;;;;;;;;;1039114;28;20049;-66
2023/10/06 00:59:36;;;;;;;9.23;5.07;;;;;;;;;;1045177;28;20067;-66
2023/10/06 01:00:16;;;;;;;10.00;4.95;;;;;;;;;;1044385;28;20049;-66
2023/10/06 01:00:47;;;;;;;10.63;5.20;;;;;;;;;;1045642;28;20405;-66
2023/10/06 01:01:17;;;;;;;12.15;5.15;;;;;;;;;;1044859;28;20436;-65
2023/10/06 01:01:48;;;;;;;9.85;5.20;;;;;;;;;;1044637;28;20048;-66
2023/10/06 01:02:21;;;;;;;9.48;5.00;;;;;;;;;;1044930;28;20412;-66
2023/10/06 01:02:51;;;;;;;10.38;5.05;;;;;;;;;;1045928;28;20037;-66
2023/10/06 01:03:25;;;;;;;9.27;4.90;;;;;;;;;;1044936;28;20044;-66
2023/10/06 01:04:05;;;;;;;7.97;4.72;;;;;;;;;;1045704;28;20048;-66
2023/10/06 01:04:42;;;;;;;9.77;5.43;;;;;;;;;;1043659;28;20059;-66
2023/10/06 01:05:16;;;;;;;9.82;5.15;;;;;;;;;;1043962;28;20114;-66
2023/10/06 01:05:47;;;;;;;6.93;4.82;;;;;;;;;;1044675;28;20121;-66
2023/10/06 01:06:17;;;;;;;7.90;4.72;;;;;;;;;;1045997;28;20102;-66
2023/10/06 01:06:48;;;;;;;10.80;5.13;;;;;;;;;;1044922;28;20186;-66
2023/10/06 01:07:18;;;;;;;9.88;4.68;;;;;;;;;;1045266;28;20143;-66
2023/10/06 01:07:49;;;;;;;10.30;5.22;;;;;;;;;;1045905;28;20055;-66
2023/10/06 01:08:20;;;;;;;10.77;5.13;;;;;;;;;;1045669;28;20106;-66
2023/10/06 01:09:05;;;;;;;13.88;5.70;;;;;;;;;;1044933;28;20068;-65
2023/10/06 01:09:36;;;;;;;10.63;6.53;;;;;;;;;;1045044;28;20072;-66
2023/10/06 01:10:15;;;;;;;11.55;4.97;;;;;;;;;;1041032;28;20044;-65
2023/10/06 01:10:51;;;;;;;11.40;5.13;;;;;;;;;;1044116;28;20135;-68
2023/10/06 01:11:26;;;;;;;12.20;5.60;;;;;;;;;;1043900;28;20078;-66
2023/10/06 01:11:57;;;;;;;9.57;5.30;;;;;;;;;;1044808;28;20048;-66
2023/10/06 01:12:31;;;;;;;11.15;5.50;;;;;;;;;;1044540;28;20065;-66
2023/10/06 01:13:11;;;;;;;11.18;5.20;;;;;;;;;;1044660;28;20060;-66
2023/10/06 01:13:53;;;;;;;8.77;5.20;;;;;;;;;;1044445;28;20044;-66
2023/10/06 01:14:27;;;;;;;9.48;4.80;;;;;;;;;;1042983;28;20082;-66
2023/10/06 01:15:31;;;;;;;7.35;5.10;;;;;;;;;;1044929;28;20067;-66
2023/10/06 01:15:56;;;;;;;13.07;5.20;;;;;;;;;;1044577;28;20044;-66
2023/10/06 01:16:34;;;;;;;9.43;4.85;;;;;;;;;;1042865;28;20056;-66
2023/10/06 01:17:41;;;;;;;8.38;4.97;;;;;;;;;;1044784;28;20454;-66
2023/10/06 01:18:20;;;;;;;8.30;4.95;;;;;;;;;;1044065;28;20055;-66
2023/10/06 01:18:52;;;;;;;13.02;5.60;;;;;;;;;;1043861;28;20045;-66
2023/10/06 01:19:26;;;;;;;12.93;5.82;;;;;;;;;;1044299;28;20098;-66
2023/10/06 01:19:59;;;;;;;11.40;6.07;;;;;;;;;;1045301;28;20048;-68
2023/10/06 01:20:41;;;;;;;9.13;5.68;;;;;;;;;;1045169;28;20048;-66
2023/10/06 01:21:17;;;;;;;11.18;5.30;;;;;;;;;;1044042;28;20041;-66
2023/10/06 01:21:48;;;;;;;11.00;5.55;;;;;;;;;;1044652;28;20044;-66
2023/10/06 01:22:28;;;;;;;12.98;5.50;;;;;;;;;;1043759;28;20130;-65
2023/10/06 01:22:59;;;;;;;;;;;;;;;;;;1045581;28;20072;-66
2023/10/06 01:23:33;;;;;;;12.95;5.82;;;;;;;;;;1044618;28;19925;-66
2023/10/06 01:24:11;;;;;;;9.23;5.28;;;;;;;;;;1044348;28;20075;-66
2023/10/06 01:24:42;;;;;;;11.30;5.53;;;;;;;;;;1044838;28;20045;-66
2023/10/06 01:25:21;;;;;;;9.95;5.82;;;;;;;;;;1043412;28;20074;-66
2023/10/06 01:25:59;;;;;;;12.13;5.72;;;;;;;;;;1043636;28;20048;-66
2023/10/06 01:26:30;;;;;;;11.93;5.82;;;;;;;;;;1044705;28;20100;-66
2023/10/06 01:27:06;;;;;;;9.55;5.50;;;;;;;;;;1044899;28;20593;-66
2023/10/06 01:27:36;;;;;;;10.35;5.78;;;;;;;;;;1044941;28;20048;-66
2023/10/06 01:28:12;;;;;;;15.23;5.65;;;;;;;;;;1043827;28;20067;-65
2023/10/06 01:28:45;;;;;;;9.77;6.13;;;;;;;;;;1041268;28;20056;-66
2023/10/06 01:29:15;;;;;;;13.25;6.15;;;;;;;;;;1044715;28;20041;-66
2023/10/06 01:29:46;;;;;;;12.80;5.75;;;;;;;;;;1045864;28;20063;-66
2023/10/06 01:30:18;;;;;;;12.07;6.10;;;;;;;;;;1043761;28;20062;-66
2023/10/06 01:30:50;;;;;;;13.77;5.38;;;;;;;;;;1044147;28;20059;-66
2023/10/06 01:31:21;;;;;;;11.55;6.03;;;;;;;;;;1043573;28;20484;-66
2023/10/06 01:31:51;;;;;;;11.75;6.13;;;;;;;;;;1044512;28;20441;-66
2023/10/06 01:32:22;;;;;;;11.07;5.72;;;;;;;;;;1044044;28;20122;-66
2023/10/06 01:32:52;;;;;;;11.48;5.65;;;;;;;;;;1044184;28;20049;-65
2023/10/06 01:33:23;;;;;;;13.55;6.32;;;;;;;;;;1044245;28;20461;-66
2023/10/06 01:33:54;;;;;;;8.85;5.55;;;;;;;;;;1045947;28;20052;-66
2023/10/06 01:34:24;;;;;;;10.75;6.25;;;;;;;;;;1042883;28;20132;-65
2023/10/06 01:34:55;;;;;;;9.38;5.53;;;;;;;;;;1045441;28;20193;-65
2023/10/06 01:35:26;;;;;;;18.63;7.18;;;;;;;;;;1042129;28;20049;-66
2023/10/06 01:35:59;;;;;;;8.38;6.03;;;;;;;;;;1045770;28;20044;-66
2023/10/06 01:36:30;;;;;;;11.90;6.05;;;;;;;;;;1044587;28;20501;-66
2023/10/06 01:37:03;;;;;;;13.68;6.70;;;;;;;;;;1043754;28;20110;-66
2023/10/06 01:37:33;;;;;;;11.57;6.32;;;;;;;;;;1044394;28;20052;-66
2023/10/06 01:38:05;;;;;;;15.82;6.50;;;;;;;;;;1045766;28;20102;-66
2023/10/06 01:38:36;;;;;;;9.23;5.88;;;;;;;;;;1043864;28;20048;-66
2023/10/06 01:39:16;;;;;;;10.85;5.88;;;;;;;;;;1043380;28;20045;-66
2023/10/06 01:39:48;;;;;;;11.13;6.00;;;;;;;;;;1044279;28;20060;-66
2023/10/06 01:40:56;;;;;;;13.40;6.28;;;;;;;;;;1045417;28;20099;-66
2023/10/06 01:41:26;;;;;;;8.93;6.55;;;;;;;;;;1045082;28;20059;-66
2023/10/06 01:42:04;;;;;;;12.27;7.03;;;;;;;;;;1044467;28;20152;-66
2023/10/06 01:42:35;;;;;;;13.55;7.22;;;;;;;;;;1043111;28;20589;-66
2023/10/06 01:43:10;;;;;;;9.32;5.93;;;;;;;;;;1044439;28;20528;-65
2023/10/06 01:43:41;;;;;;;11.90;6.60;;;;;;;;;;1042884;28;20044;-66
2023/10/06 01:44:16;;;;;;;12.60;6.85;;;;;;;;;;1044002;28;20059;-66
2023/10/06 01:44:46;;;;;;;11.80;6.60;;;;;;;;;;1044734;28;20073;-66
2023/10/06 01:45:21;;;;;;;11.43;6.45;;;;;;;;;;1041280;28;20061;-66
2023/10/06 01:45:52;;;;;;;12.90;6.78;;;;;;;;;;1043263;28;20045;-66
2023/10/06 01:46:24;;;;;;;12.65;7.07;;;;;;;;;;1044436;28;20044;-66
2023/10/06 01:46:54;;;;;;;10.07;6.80;;;;;;;;;;1045303;28;20064;-66
2023/10/06 01:47:29;;;;;;;14.57;7.15;;;;;;;;;;1042369;28;20054;-66
2023/10/06 01:48:42;;;;;;;10.90;6.93;;;;;;;;;;1041852;28;20138;-66
2023/10/06 01:49:14;;;;;;;10.88;7.18;;;;;;;;;;1044650;28;20049;-66
2023/10/06 01:49:47;;;;;;;12.40;7.07;;;;;;;;;;1043040;28;20845;-66
2023/10/06 01:50:18;;;;;;;11.77;7.07;;;;;;;;;;1042393;28;20402;-66
2023/10/06 01:50:49;;;;;;;10.10;7.47;;;;;;;;;;1045503;28;20465;-66
2023/10/06 01:51:19;;;;;;;13.60;7.25;;;;;;;;;;1045820;28;20114;-66
2023/10/06 01:51:51;;;;;;;13.20;7.90;;;;;;;;;;1045132;28;20048;-66
2023/10/06 01:52:21;;;;;;;11.55;7.65;;;;;;;;;;1045148;28;20056;-66
2023/10/06 01:52:58;;;;;;;12.88;7.38;;;;;;;;;;1045698;28;20139;-66
2023/10/06 01:53:32;;;;;;;17.30;7.57;;;;;;;;;;1043936;28;20131;-66
2023/10/06 01:54:05;;;;;;;11.32;7.57;;;;;;;;;;1045424;28;20759;-65
2023/10/06 01:54:36;;;;;;;16.60;7.90;;;;;;;;;;1045385;28;20052;-66
2023/10/06 01:55:09;;;;;;;14.05;7.88;;;;;;;;;;1044887;28;20052;-66
2023/10/06 01:55:39;;;;;;;13.25;8.45;;;;;;;;;;1044870;28;20623;-66
2023/10/06 01:56:10;;;;;;;14.10;7.55;;;;;;;;;;1045193;28;20852;-66
2023/10/06 01:56:44;;;;;;;15.63;7.05;;;;;;;;;;1045745;28;20049;-66
2023/10/06 01:57:15;;;;;;;15.63;7.80;;;;;;;;;;1043378;28;20717;-66
2023/10/06 01:57:47;;;;;;;15.85;7.13;;;;;;;;;;1044547;28;20068;-66
2023/10/06 01:58:18;;;;;;;13.23;6.97;;;;;;;;;;1043404;28;20135;-66
2023/10/06 01:58:51;;;;;;;17.45;7.47;;;;;;;;;;1045192;28;20048;-66
2023/10/06 01:59:21;;;;;;;18.92;8.52;;;;;;;;;;1044708;28;20401;-65
2023/10/06 01:59:52;;;;;;;13.20;7.22;;;;;;;;;;1046066;28;20621;-66
2023/10/06 02:00:31;;;;;;;12.45;6.82;;;;;;;;;;1042854;28;20087;-65
2023/10/06 02:01:05;;;;;;;13.48;6.78;;;;;;;;;;1045179;28;20057;-66
2023/10/06 02:01:40;;;;;;;12.98;6.43;;;;;;;;;;1046423;28;20098;-66
2023/10/06 02:02:12;;;;;;;16.38;6.93;;;;;;;;;;1044815;28;20052;-66
2023/10/06 02:02:43;;;;;;;13.02;7.22;;;;;;;;;;1043764;28;20033;-65
2023/10/06 02:03:18;;;;;;;12.43;6.75;;;;;;;;;;1045907;28;20049;-65
2023/10/06 02:03:48;;;;;;;12.95;6.57;;;;;;;;;;1045367;28;20070;-66
2023/10/06 02:04:22;;;;;;;11.35;6.68;;;;;;;;;;1046209;28;20176;-66
2023/10/06 02:04:57;;;;;;;13.68;6.68;;;;;;;;;;1046031;28;20510;-65
2023/10/06 02:05:27;;;;;;;11.18;6.45;;;;;;;;;;1045572;28;20140;-66
2023/10/06 02:05:59;;;;;;;14.95;6.60;;;;;;;;;;1045976;28;20044;-66
2023/10/06 02:06:30;;;;;;;12.65;7.22;;;;;;;;;;1045141;28;20066;-66
2023/10/06 02:07:01;;;;;;;11.25;6.60;;;;;;;;;;1046144;28;20692;-66
2023/10/06 02:07:35;;;;;;;19.27;7.03;;;;;;;;;;1045212;28;20131;-66
2023/10/06 02:08:09;;;;;;;11.73;6.80;;;;;;;;;;1045557;28;20048;-66
2023/10/06 02:08:40;;;;;;;13.18;7.40;;;;;;;;;;1044865;28;20051;-65
2023/10/06 02:09:18;;;;;;;15.05;7.15;;;;;;;;;;1044661;28;20087;-65
2023/10/06 02:09:49;;;;;;;13.15;7.20;;;;;;;;;;1046732;28;20058;-65
2023/10/06 02:10:19;;;;;;;14.23;7.03;;;;;;;;;;1045706;28;20079;-65
2023/10/06 02:10:50;;;;;;;18.10;6.65;;;;;;;;;;1046315;28;20028;-66
2023/10/06 02:11:21;;;;;;;13.02;7.38;;;;;;;;;;1044973;28;20450;-66
2023/10/06 02:11:55;;;;;;;11.85;6.65;;;;;;;;;;1044951;28;20127;-66
2023/10/06 02:12:25;;;;;;;10.70;6.55;;;;;;;;;;1046641;28;20122;-65
2023/10/06 02:12:55;;;;;;;15.18;7.03;;;;;;;;;;1044869;28;20069;-66
2023/10/06 02:13:26;;;;;;;13.93;7.53;;;;;;;;;;1044668;28;20408;-66
2023/10/06 02:13:57;;;;;;;14.38;6.57;;;;;;;;;;1045840;28;20052;-66
2023/10/06 02:14:27;;;;;;;10.25;7.15;;;;;;;;;;1046193;28;20074;-65
2023/10/06 02:14:58;;;;;;;13.18;7.22;;;;;;;;;;1043700;28;20449;-66
2023/10/06 02:15:29;;;;;;;13.35;7.13;;;;;;;;;;1045452;28;20048;-66
2023/10/06 02:15:59;;;;;;;12.13;6.95;;;;;;;;;;1044492;28;20117;-66
2023/10/06 02:16:30;;;;;;;13.32;6.63;;;;;;;;;;1046125;28;20358;-66
2023/10/06 02:17:05;;;;;;;12.32;6.90;;;;;;;;;;1045868;28;20091;-66
2023/10/06 02:17:37;;;;;;;13.70;7.05;;;;;;;;;;1047205;28;20090;-66
2023/10/06 02:18:12;;;;;;;17.27;7.47;;;;;;;;;;1045054;28;20497;-66
2023/10/06 02:18:42;;;;;;;14.98;6.47;;;;;;;;;;1046929;28;20400;-67
2023/10/06 02:19:16;;;;;;;12.75;6.82;;;;;;;;;;1044458;28;20497;-67
2023/10/06 02:19:46;;;;;;;13.55;7.45;;;;;;;;;;1047015;28;20431;-67
2023/10/06 02:20:53;;;;;;;13.45;7.13;;;;;;;;;;1046512;28;20052;-67
2023/10/06 02:21:24;;;;;;;15.50;7.45;;;;;;;;;;1044830;28;20066;-66
2023/10/06 02:21:54;;;;;;;15.45;7.95;;;;;;;;;;1046990;28;20734;-66
2023/10/06 02:22:27;;;;;;;15.93;7.75;;;;;;;;;;1046476;28;20378;-67
2023/10/06 02:22:58;;;;;;;10.40;7.35;;;;;;;;;;1045415;28;20063;-66
2023/10/06 02:23:28;;;;;;;13.98;8.73;;;;;;;;;;1046157;28;20519;-66
2023/10/06 02:24:04;;;;;;;10.95;7.75;;;;;;;;;;1045296;28;20063;-66
2023/10/06 02:24:34;;;;;;;14.35;7.70;;;;;;;;;;1046813;28;20520;-66
2023/10/06 02:25:13;;;;;;;16.58;7.90;;;;;;;;;;1045060;28;20524;-66
2023/10/06 02:25:44;;;;;;;13.02;7.72;;;;;;;;;;1046516;28;20044;-67
2023/10/06 02:26:14;;;;;;;32.03;8.05;;;;;;;;;;1045728;28;20048;-66
2023/10/06 02:26:56;;;;;;;14.80;7.60;;;;;;;;;;1045662;28;20064;-66
2023/10/06 02:27:27;;;;;;;13.30;7.75;;;;;;;;;;1045175;28;20052;-66
2023/10/06 02:28:03;;;;;;;16.10;8.43;;;;;;;;;;1046499;28;20417;-67
2023/10/06 02:28:34;;;;;;;14.07;7.68;;;;;;;;;;1044200;28;20604;-69
2023/10/06 02:29:24;;;;;;;13.40;8.70;;;;;;;;;;1046525;28;20592;-66
2023/10/06 02:29:56;;;;;;;;;;;;;;;;;;1046542;28;20098;-66
2023/10/06 02:30:44;;;;;;;14.73;7.70;;;;;;;;;;1045237;28;19924;-66
2023/10/06 02:31:16;;;;;;;11.18;7.70;;;;;;;;;;1046867;28;20045;-66
2023/10/06 02:31:47;;;;;;;20.10;9.63;;;;;;;;;;1045578;28;20058;-66
2023/10/06 02:32:17;;;;;;;18.02;8.85;;;;;;;;;;1045633;28;20053;-66
2023/10/06 02:32:49;;;;;;;13.65;8.77;;;;;;;;;;1046309;28;20106;-66
2023/10/06 02:33:19;;;;;;;18.42;8.98;;;;;;;;;;1045367;28;20186;-67
2023/10/06 02:33:51;;;;;;;16.92;9.15;;;;;;;;;;1045704;28;20771;-67
2023/10/06 02:34:35;;;;;;;11.68;8.30;;;;;;;;;;1043867;28;20099;-67
2023/10/06 02:35:07;;;;;;;13.43;8.27;;;;;;;;;;1043921;28;20110;-67
2023/10/06 02:35:44;;;;;;;14.63;8.63;;;;;;;;;;1045800;28;20084;-66
2023/10/06 02:36:17;;;;;;;13.68;9.05;;;;;;;;;;1046464;28;20032;-67
2023/10/06 02:36:48;;;;;;;17.58;8.90;;;;;;;;;;1044674;28;20050;-66
2023/10/06 02:37:22;;;;;;;15.23;7.95;;;;;;;;;;1043783;28;20080;-66
2023/10/06 02:37:57;;;;;;;16.67;9.18;;;;;;;;;;1045426;28;20059;-67
2023/10/06 02:38:41;;;;;;;14.73;8.27;;;;;;;;;;1046637;28;20501;-66
2023/10/06 02:39:15;;;;;;;13.38;8.10;;;;;;;;;;1045408;28;20204;-66
2023/10/06 02:39:46;;;;;;;12.45;8.18;;;;;;;;;;1045403;28;20048;-67
2023/10/06 02:40:17;;;;;;;12.35;8.35;;;;;;;;;;1044787;28;20049;-67
2023/10/06 02:40:48;;;;;;;16.50;8.43;;;;;;;;;;1044625;28;20056;-67
2023/10/06 02:41:21;;;;;;;13.90;9.02;;;;;;;;;;1045753;28;20052;-67
2023/10/06 02:41:57;;;;;;;14.27;8.90;;;;;;;;;;1046272;28;20075;-67
2023/10/06 02:42:27;;;;;;;14.55;9.25;;;;;;;;;;1040605;28;20079;-67
2023/10/06 02:43:00;;;;;;;18.45;9.27;;;;;;;;;;1041305;28;20107;-67
2023/10/06 02:43:31;;;;;;;15.85;8.63;;;;;;;;;;1041964;28;20057;-66
2023/10/06 02:44:14;;;;;;;18.52;9.40;;;;;;;;;;1042203;28;20044;-66
2023/10/06 02:44:45;;;;;;;14.15;8.32;;;;;;;;;;1043862;28;20690;-66
2023/10/06 02:45:20;;;;;;;15.98;9.80;;;;;;;;;;1044325;27;20536;-66
2023/10/06 02:45:51;;;;;;;16.42;9.43;;;;;;;;;;1044567;28;20052;-66
2023/10/06 02:46:25;;;;;;;15.07;8.90;;;;;;;;;;1042005;28;20075;-66
2023/10/06 02:46:55;;;;;;;12.80;9.38;;;;;;;;;;1041099;28;20068;-66
2023/10/06 02:47:27;;;;;;;15.13;8.98;;;;;;;;;;1044464;28;20052;-66
2023/10/06 02:47:58;;;;;;;11.77;8.40;;;;;;;;;;1045166;28;20098;-66
2023/10/06 02:48:33;;;;;;;18.25;9.65;;;;;;;;;;1046958;28;20048;-66
2023/10/06 02:49:08;;;;;;;16.33;8.90;;;;;;;;;;1045426;28;20049;-68
2023/10/06 02:49:40;;;;;;;18.20;8.82;;;;;;;;;;1046827;28;20049;-67
2023/10/06 02:50:19;;;;;;;15.60;9.65;;;;;;;;;;1045798;28;20502;-66
2023/10/06 02:50:53;;;;;;;15.68;9.10;;;;;;;;;;1047085;28;20044;-66
2023/10/06 02:51:32;;;;;;;17.02;9.75;;;;;;;;;;1045240;28;20060;-66
2023/10/06 02:52:54;;;;;;;16.17;9.52;;;;;;;;;;1046188;28;20041;-67
2023/10/06 02:53:27;;;;;;;15.82;10.15;;;;;;;;;;1045381;28;20841;-66
2023/10/06 02:54:21;;;;;;;19.02;9.57;;;;;;;;;;1045409;28;20040;-66
2023/10/06 02:55:32;;;;;;;15.00;10.52;;;;;;;;;;1046478;28;20077;-66
2023/10/06 02:55:55;;;;;;;20.45;10.65;;;;;;;;;;1037318;28;20052;-66
2023/10/06 02:56:28;;;;;;;18.95;9.50;;;;;;;;;;1045644;28;20045;-66
2023/10/06 02:56:59;;;;;;;15.57;10.23;;;;;;;;;;1045738;28;20052;-66
2023/10/06 02:57:38;;;;;;;20.60;12.10;;;;;;;;;;1045426;28;20049;-66
2023/10/06 02:58:10;;;;;;;18.08;11.30;;;;;;;;;;1043882;28;20049;-66
2023/10/06 02:58:42;;;;;;;17.08;11.45;;;;;;;;;;1041520;28;20596;-66
2023/10/06 02:59:21;;;;;;;15.82;11.30;;;;;;;;;;1041979;28;20041;-66
2023/10/06 02:59:56;;;;;;;20.95;11.13;;;;;;;;;;1041555;28;20051;-67
2023/10/06 03:00:30;;;;;;;21.45;11.65;;;;;;;;;;1040880;28;20772;-66
2023/10/06 03:01:03;;;;;;;19.75;11.70;;;;;;;;;;1042698;28;20049;-65
2023/10/06 03:01:38;;;;;;;18.92;12.77;;;;;;;;;;1046583;28;20044;-66
2023/10/06 03:02:15;;;;;;;17.50;11.73;;;;;;;;;;1045468;28;20057;-66
2023/10/06 03:02:46;;;;;;;18.80;12.10;;;;;;;;;;1046699;28;20916;-66
2023/10/06 03:03:22;;;;;;;25.17;12.07;;;;;;;;;;1045763;28;20778;-66
2023/10/06 03:03:59;;;;;;;20.80;12.05;;;;;;;;;;1045095;28;20048;-66
2023/10/06 03:04:35;;;;;;;18.17;11.10;;;;;;;;;;1044641;28;20519;-65
2023/10/06 03:05:32;;;;;;;18.25;11.32;;;;;;;;;;1045423;28;20055;-65
2023/10/06 03:05:56;;;;;;;21.45;11.90;;;;;;;;;;1046167;28;20059;-66
2023/10/06 03:06:27;;;;;;;20.38;11.77;;;;;;;;;;1044863;28;20056;-66
2023/10/06 03:06:58;;;;;;;17.02;11.85;;;;;;;;;;1045659;28;20048;-65
2023/10/06 03:07:29;;;;;;;19.52;12.13;;;;;;;;;;1046132;28;20048;-66
2023/10/06 03:08:09;;;;;;;20.95;12.27;;;;;;;;;;1042306;28;20052;-66
2023/10/06 03:08:41;;;;;;;20.17;11.52;;;;;;;;;;1046290;28;20067;-65
2023/10/06 03:09:12;;;;;;;22.40;12.05;;;;;;;;;;1046630;28;20706;-65
2023/10/06 03:09:47;;;;;;;19.63;13.07;;;;;;;;;;1045758;28;20052;-66
2023/10/06 03:10:18;;;;;;;23.25;12.98;;;;;;;;;;1045447;28;20052;-65
2023/10/06 03:10:49;;;;;;;21.05;12.52;;;;;;;;;;1045575;28;20067;-65
2023/10/06 03:11:23;;;;;;;21.23;12.20;;;;;;;;;;1045633;28;20827;-65
2023/10/06 03:11:58;;;;;;;18.10;12.43;;;;;;;;;;1047148;28;20048;-66
2023/10/06 03:12:31;;;;;;;25.27;12.88;;;;;;;;;;1046467;28;20834;-66
2023/10/06 03:13:03;;;;;;;21.35;13.70;;;;;;;;;;1041056;28;20056;-66
2023/10/06 03:13:36;;;;;;;18.52;12.30;;;;;;;;;;1039784;28;20144;-66
2023/10/06 03:14:07;;;;;;;18.83;12.32;;;;;;;;;;1042425;28;20140;-66
2023/10/06 03:14:38;;;;;;;15.85;10.93;;;;;;;;;;1039255;28;20045;-65
2023/10/06 03:15:28;;;;;;;18.02;11.07;;;;;;;;;;1041983;28;20059;-66
2023/10/06 03:16:00;;;;;;;17.73;11.30;;;;;;;;;;1044526;28;20056;-66
2023/10/06 03:16:32;;;;;;;20.42;10.45;;;;;;;;;;1046055;28;20048;-66
2023/10/06 03:17:08;;;;;;;18.75;11.70;;;;;;;;;;1045569;28;20056;-66
2023/10/06 03:17:38;;;;;;;17.20;10.90;;;;;;;;;;1045572;28;20059;-66
2023/10/06 03:18:09;;;;;;;18.10;11.30;;;;;;;;;;1045025;28;20143;-66
2023/10/06 03:18:39;;;;;;;19.17;11.93;;;;;;;;;;1046123;28;20048;-66
2023/10/06 03:19:12;;;;;;;20.08;11.18;;;;;;;;;;1046421;28;20071;-66
2023/10/06 03:19:44;;;;;;;16.52;10.13;;;;;;;;;;1046987;28;20178;-66
2023/10/06 03:20:18;;;;;;;16.58;10.30;;;;;;;;;;1045436;28;20091;-66
2023/10/06 03:21:13;;;;;;;15.32;10.15;;;;;;;;;;1044013;28;20044;-66
2023/10/06 03:21:45;;;;;;;17.60;9.57;;;;;;;;;;1040648;28;20056;-66
2023/10/06 03:22:17;;;;;;;17.90;10.23;;;;;;;;;;1042447;28;20048;-66
2023/10/06 03:22:52;;;;;;;24.75;10.38;;;;;;;;;;1044533;28;20057;-68
2023/10/06 03:23:27;;;;;;;14.50;9.85;;;;;;;;;;1042501;28;20076;-66
2023/10/06 03:23:58;;;;;;;12.95;9.57;;;;;;;;;;1041490;28;20087;-66